Aysenur — ERJR — position and weather

sailwx.info

Track history (hours):
 
Tides and Currents Weather Stations Pressure Air Temp Water Temp Dewpoint Dewpoint Depression Visibility Wind Speed Wind Dir Waves Ship Positions

Aysenur

Last reported at 2014-Oct-19 16:24 UTC. Time now 2014-Oct-25 09:32 UTC.
Position N 40°56' E 029°03'.

Length 101 m; draft 3.4 m.

Type: Cargo ship. MMSI: 214181018.

Date/timePositionNaut miles runAvg speedWind from/ knotsBaromVisibWave heightAir tempDewpointWater temp
2014-Oct-19 16:24N 40°56' E 029°03'7 8.4
2014-Oct-19 15:32N 40°52' E 029°11'0 0.4
2014-Oct-19 14:33N 40°52' E 029°11'0 0.0
2014-Oct-19 13:30N 40°52' E 029°11'0 0.0
2014-Oct-19 12:30N 40°52' E 029°11'0 0.0
2014-Oct-19 11:30N 40°52' E 029°11'0 0.0
2014-Oct-19 10:30N 40°52' E 029°11'0 0.0
2014-Oct-19 09:30N 40°52' E 029°11'0 0.0
2014-Oct-19 08:24N 40°52' E 029°11'0 0.0
2014-Oct-19 07:24N 40°52' E 029°11'0 0.0
2014-Oct-19 06:30N 40°52' E 029°11'0 0.0
2014-Oct-19 05:29N 40°52' E 029°11'0 0.0
2014-Oct-19 04:23N 40°52' E 029°11'0 0.0
2014-Oct-19 03:29N 40°52' E 029°11'0 0.0
2014-Oct-19 02:29N 40°52' E 029°11'0 0.0
2014-Oct-19 01:29N 40°52' E 029°11'0 0.0
2014-Oct-19 00:23N 40°52' E 029°11'0 0.0
2014-Oct-18 23:29N 40°52' E 029°11'0 0.0
2014-Oct-18 22:29N 40°52' E 029°11'0 0.0
2014-Oct-18 21:29N 40°52' E 029°11'0 0.0
2014-Oct-18 20:23N 40°52' E 029°11'0 0.0
2014-Oct-18 19:29N 40°52' E 029°11'0 0.0
2014-Oct-18 18:29N 40°52' E 029°11'0 0.0
2014-Oct-18 17:05N 40°52' E 029°11'0 0.0
2014-Oct-18 16:29N 40°52' E 029°11'0 0.0
2014-Oct-18 15:23N 40°52' E 029°11'0 0.0
2014-Oct-18 14:29N 40°52' E 029°11'0 0.0
2014-Oct-18 13:29N 40°52' E 029°11'0 0.0
2014-Oct-18 12:29N 40°52' E 029°11'3 3.4
2014-Oct-18 11:33N 40°51' E 029°15'1 1.3
2014-Oct-18 10:28N 40°51' E 029°17'0 0.0
2014-Oct-18 09:22N 40°51' E 029°17'0 0.0
2014-Oct-18 08:28N 40°51' E 029°17'0 0.0
2014-Oct-18 07:28N 40°51' E 029°17'0 0.0
2014-Oct-18 06:28N 40°51' E 029°17'  
Track history (hours):
 
Tides and Currents Weather Stations Pressure Air Temp Water Temp Dewpoint Dewpoint Depression Visibility Wind Speed Wind Dir Waves Ship Positions

Aysenur

Last reported at 2014-Oct-19 16:24 UTC. Time now 2014-Oct-25 09:32 UTC.
Position N 40°56' E 029°03'.

Length 101 m; draft 3.4 m.

Type: Cargo ship. MMSI: 214181018.

Date/timePositionNaut miles runAvg speedWind from/ knotsBaromVisibWave heightAir tempDewpointWater temp
2014-Oct-19 16:24N 40°56' E 029°03'7 8.4
2014-Oct-19 15:32N 40°52' E 029°11'0 0.4
2014-Oct-19 14:33N 40°52' E 029°11'0 0.0
2014-Oct-19 13:30N 40°52' E 029°11'0 0.0
2014-Oct-19 12:30N 40°52' E 029°11'0 0.0
2014-Oct-19 11:30N 40°52' E 029°11'0 0.0
2014-Oct-19 10:30N 40°52' E 029°11'0 0.0
2014-Oct-19 09:30N 40°52' E 029°11'0 0.0
2014-Oct-19 08:24N 40°52' E 029°11'0 0.0
2014-Oct-19 07:24N 40°52' E 029°11'0 0.0
2014-Oct-19 06:30N 40°52' E 029°11'0 0.0
2014-Oct-19 05:29N 40°52' E 029°11'0 0.0
2014-Oct-19 04:23N 40°52' E 029°11'0 0.0
2014-Oct-19 03:29N 40°52' E 029°11'0 0.0
2014-Oct-19 02:29N 40°52' E 029°11'0 0.0
2014-Oct-19 01:29N 40°52' E 029°11'0 0.0
2014-Oct-19 00:23N 40°52' E 029°11'0 0.0
2014-Oct-18 23:29N 40°52' E 029°11'0 0.0
2014-Oct-18 22:29N 40°52' E 029°11'0 0.0
2014-Oct-18 21:29N 40°52' E 029°11'0 0.0
2014-Oct-18 20:23N 40°52' E 029°11'0 0.0
2014-Oct-18 19:29N 40°52' E 029°11'0 0.0
2014-Oct-18 18:29N 40°52' E 029°11'0 0.0
2014-Oct-18 17:05N 40°52' E 029°11'0 0.0
2014-Oct-18 16:29N 40°52' E 029°11'0 0.0
2014-Oct-18 15:23N 40°52' E 029°11'0 0.0
2014-Oct-18 14:29N 40°52' E 029°11'0 0.0
2014-Oct-18 13:29N 40°52' E 029°11'0 0.0
2014-Oct-18 12:29N 40°52' E 029°11'3 3.4
2014-Oct-18 11:33N 40°51' E 029°15'1 1.3
2014-Oct-18 10:28N 40°51' E 029°17'0 0.0
2014-Oct-18 09:22N 40°51' E 029°17'0 0.0
2014-Oct-18 08:28N 40°51' E 029°17'0 0.0
2014-Oct-18 07:28N 40°51' E 029°17'0 0.0
2014-Oct-18 06:28N 40°51' E 029°17'  

Dump ship's entire track history